sensor_id;sensor_type;location;lat;lon;timestamp;pressure;altitude;pressure_sealevel;temperature;humidity
11114;BME280;5610;52.154;9.198;2023-02-03T00:00:28;101265.06;;;8.94;100.00
11114;BME280;5610;52.154;9.198;2023-02-03T00:03:15;101256.97;;;8.97;100.00
11114;BME280;5610;52.154;9.198;2023-02-03T00:06:01;101259.47;;;9.00;100.00
11114;BME280;5610;52.154;9.198;2023-02-03T00:08:47;101256.91;;;8.99;100.00
11114;BME280;5610;52.154;9.198;2023-02-03T00:11:34;101242.91;;;8.95;100.00
11114;BME280;5610;52.154;9.198;2023-02-03T00:14:19;101222.56;;;9.13;100.00
11114;BME280;5610;52.154;9.198;2023-02-03T00:17:05;101212.97;;;9.11;100.00
11114;BME280;5610;52.154;9.198;2023-02-03T00:19:50;101213.16;;;9.06;100.00
11114;BME280;5610;52.154;9.198;2023-02-03T00:22:36;101214.88;;;9.07;100.00
11114;BME280;5610;52.154;9.198;2023-02-03T00:25:21;101195.78;;;8.99;100.00
11114;BME280;5610;52.154;9.198;2023-02-03T00:28:08;101206.81;;;9.08;100.00
11114;BME280;5610;52.154;9.198;2023-02-03T00:30:53;101210.81;;;9.19;100.00
11114;BME280;5610;52.154;9.198;2023-02-03T00:33:38;101211.38;;;9.06;100.00
11114;BME280;5610;52.154;9.198;2023-02-03T00:36:24;101226.59;;;9.03;100.00
11114;BME280;5610;52.154;9.198;2023-02-03T00:39:10;101224.88;;;9.21;100.00
11114;BME280;5610;52.154;9.198;2023-02-03T00:41:55;101221.22;;;9.23;100.00
11114;BME280;5610;52.154;9.198;2023-02-03T00:44:42;101205.31;;;9.22;100.00
11114;BME280;5610;52.154;9.198;2023-02-03T00:47:27;101205.41;;;9.20;100.00
11114;BME280;5610;52.154;9.198;2023-02-03T00:50:13;101209.88;;;9.20;100.00
11114;BME280;5610;52.154;9.198;2023-02-03T00:52:59;101212.88;;;9.12;100.00
11114;BME280;5610;52.154;9.198;2023-02-03T00:55:44;101202.75;;;9.20;100.00
11114;BME280;5610;52.154;9.198;2023-02-03T00:58:29;101203.84;;;9.16;100.00
11114;BME280;5610;52.154;9.198;2023-02-03T01:01:16;101202.63;;;9.23;100.00
11114;BME280;5610;52.154;9.198;2023-02-03T01:04:02;101197.94;;;9.28;100.00
11114;BME280;5610;52.154;9.198;2023-02-03T01:06:48;101216.47;;;9.30;100.00
11114;BME280;5610;52.154;9.198;2023-02-03T01:09:33;101216.03;;;9.20;100.00
11114;BME280;5610;52.154;9.198;2023-02-03T01:12:18;101214.13;;;9.24;100.00
11114;BME280;5610;52.154;9.198;2023-02-03T01:15:04;101211.22;;;9.28;100.00
11114;BME280;5610;52.154;9.198;2023-02-03T01:17:51;101226.69;;;9.39;100.00
11114;BME280;5610;52.154;9.198;2023-02-03T01:20:37;101216.34;;;9.33;100.00
11114;BME280;5610;52.154;9.198;2023-02-03T01:23:22;101210.06;;;9.34;100.00
11114;BME280;5610;52.154;9.198;2023-02-03T01:26:10;101209.66;;;9.24;100.00
11114;BME280;5610;52.154;9.198;2023-02-03T01:28:57;101218.22;;;9.31;100.00
11114;BME280;5610;52.154;9.198;2023-02-03T01:31:43;101227.06;;;9.31;100.00
11114;BME280;5610;52.154;9.198;2023-02-03T01:34:29;101200.75;;;9.25;100.00
11114;BME280;5610;52.154;9.198;2023-02-03T01:37:16;101232.41;;;9.30;100.00
11114;BME280;5610;52.154;9.198;2023-02-03T01:40:02;101206.75;;;9.29;100.00
11114;BME280;5610;52.154;9.198;2023-02-03T01:42:48;101216.81;;;9.41;100.00
11114;BME280;5610;52.154;9.198;2023-02-03T01:45:33;101233.00;;;9.36;100.00
11114;BME280;5610;52.154;9.198;2023-02-03T01:48:18;101221.28;;;9.41;100.00
11114;BME280;5610;52.154;9.198;2023-02-03T01:51:06;101226.03;;;9.34;100.00
11114;BME280;5610;52.154;9.198;2023-02-03T01:53:51;101204.19;;;9.27;100.00
11114;BME280;5610;52.154;9.198;2023-02-03T01:56:39;101214.03;;;9.25;100.00
11114;BME280;5610;52.154;9.198;2023-02-03T01:59:28;101201.22;;;9.33;100.00
11114;BME280;5610;52.154;9.198;2023-02-03T02:02:15;101187.53;;;9.24;100.00
11114;BME280;5610;52.154;9.198;2023-02-03T02:05:05;101205.31;;;9.22;100.00
11114;BME280;5610;52.154;9.198;2023-02-03T02:07:52;101188.09;;;9.30;100.00
11114;BME280;5610;52.154;9.198;2023-02-03T02:10:38;101187.50;;;9.43;100.00
11114;BME280;5610;52.154;9.198;2023-02-03T02:13:23;101178.06;;;9.35;100.00
11114;BME280;5610;52.154;9.198;2023-02-03T02:16:15;101164.94;;;9.32;100.00
11114;BME280;5610;52.154;9.198;2023-02-03T02:19:12;101154.44;;;9.29;100.00
11114;BME280;5610;52.154;9.198;2023-02-03T02:22:11;101168.25;;;9.19;100.00
11114;BME280;5610;52.154;9.198;2023-02-03T02:25:27;101140.75;;;9.37;100.00
11114;BME280;5610;52.154;9.198;2023-02-03T02:28:42;101139.03;;;9.36;100.00
11114;BME280;5610;52.154;9.198;2023-02-03T02:31:56;101111.66;;;9.34;100.00
11114;BME280;5610;52.154;9.198;2023-02-03T02:34:56;101116.69;;;9.40;100.00
11114;BME280;5610;52.154;9.198;2023-02-03T02:37:48;101101.50;;;9.42;100.00
11114;BME280;5610;52.154;9.198;2023-02-03T02:40:41;101090.97;;;9.41;100.00
11114;BME280;5610;52.154;9.198;2023-02-03T02:43:36;101097.44;;;9.35;100.00
11114;BME280;5610;52.154;9.198;2023-02-03T02:46:42;101113.47;;;9.33;100.00
11114;BME280;5610;52.154;9.198;2023-02-03T02:49:34;101118.00;;;9.31;100.00
11114;BME280;5610;52.154;9.198;2023-02-03T02:52:23;101133.13;;;9.31;100.00
11114;BME280;5610;52.154;9.198;2023-02-03T02:55:15;101137.63;;;9.29;100.00
11114;BME280;5610;52.154;9.198;2023-02-03T02:58:04;101128.38;;;9.19;100.00
11114;BME280;5610;52.154;9.198;2023-02-03T03:00:51;101144.81;;;9.27;100.00
11114;BME280;5610;52.154;9.198;2023-02-03T03:03:36;101140.72;;;9.39;100.00
11114;BME280;5610;52.154;9.198;2023-02-03T03:06:29;101139.13;;;9.34;100.00
11114;BME280;5610;52.154;9.198;2023-02-03T03:09:19;101124.81;;;9.37;100.00
11114;BME280;5610;52.154;9.198;2023-02-03T03:12:08;101134.91;;;9.30;100.00
11114;BME280;5610;52.154;9.198;2023-02-03T03:14:57;101140.72;;;9.39;100.00
11114;BME280;5610;52.154;9.198;2023-02-03T03:17:50;101125.63;;;9.39;100.00
11114;BME280;5610;52.154;9.198;2023-02-03T03:20:40;101125.75;;;9.36;100.00
11114;BME280;5610;52.154;9.198;2023-02-03T03:23:31;101118.34;;;9.43;100.00
11114;BME280;5610;52.154;9.198;2023-02-03T03:26:22;101102.06;;;9.49;100.00
11114;BME280;5610;52.154;9.198;2023-02-03T03:29:14;101098.16;;;9.56;100.00
11114;BME280;5610;52.154;9.198;2023-02-03T03:32:00;101107.59;;;9.44;100.00
11114;BME280;5610;52.154;9.198;2023-02-03T03:34:46;101089.06;;;9.43;100.00
11114;BME280;5610;52.154;9.198;2023-02-03T03:37:34;101090.97;;;9.41;100.00
11114;BME280;5610;52.154;9.198;2023-02-03T03:40:25;101091.81;;;9.41;100.00
11114;BME280;5610;52.154;9.198;2023-02-03T03:43:15;101090.97;;;9.41;100.00
11114;BME280;5610;52.154;9.198;2023-02-03T03:46:06;101077.44;;;9.45;100.00
11114;BME280;5610;52.154;9.198;2023-02-03T03:48:55;101075.56;;;9.47;100.00
11114;BME280;5610;52.154;9.198;2023-02-03T03:51:46;101074.22;;;9.39;100.00
11114;BME280;5610;52.154;9.198;2023-02-03T03:54:33;101068.72;;;9.42;100.00
11114;BME280;5610;52.154;9.198;2023-02-03T03:57:25;101086.72;;;9.36;100.00
11114;BME280;5610;52.154;9.198;2023-02-03T04:00:16;101074.78;;;9.45;100.00
11114;BME280;5610;52.154;9.198;2023-02-03T04:03:06;101071.41;;;9.42;100.00
11114;BME280;5610;52.154;9.198;2023-02-03T04:05:54;101055.44;;;9.42;100.00
11114;BME280;5610;52.154;9.198;2023-02-03T04:08:39;101062.00;;;9.34;100.00
11114;BME280;5610;52.154;9.198;2023-02-03T04:11:25;101071.25;;;9.08;100.00
11114;BME280;5610;52.154;9.198;2023-02-03T04:14:30;101046.34;;;9.28;100.00
11114;BME280;5610;52.154;9.198;2023-02-03T04:17:16;101039.69;;;9.20;100.00
11114;BME280;5610;52.154;9.198;2023-02-03T04:20:03;101060.66;;;9.26;100.00
11114;BME280;5610;52.154;9.198;2023-02-03T04:22:49;101054.09;;;9.33;100.00
11114;BME280;5610;52.154;9.198;2023-02-03T04:25:34;101051.28;;;9.36;100.00
11114;BME280;5610;52.154;9.198;2023-02-03T04:28:20;101063.72;;;9.35;100.00
11114;BME280;5610;52.154;9.198;2023-02-03T04:31:06;101050.34;;;9.37;100.00
11114;BME280;5610;52.154;9.198;2023-02-03T04:33:52;101059.13;;;9.39;100.00
11114;BME280;5610;52.154;9.198;2023-02-03T04:36:37;101066.28;;;9.37;100.00
11114;BME280;5610;52.154;9.198;2023-02-03T04:39:22;101057.97;;;9.45;100.00
11114;BME280;5610;52.154;9.198;2023-02-03T04:42:08;101064.06;;;9.47;100.00
11114;BME280;5610;52.154;9.198;2023-02-03T04:44:53;101060.97;;;9.37;100.00
11114;BME280;5610;52.154;9.198;2023-02-03T04:47:40;101055.34;;;9.43;100.00
11114;BME280;5610;52.154;9.198;2023-02-03T04:50:25;101059.69;;;9.46;100.00
11114;BME280;5610;52.154;9.198;2023-02-03T04:53:10;101019.16;;;9.41;100.00
11114;BME280;5610;52.154;9.198;2023-02-03T04:55:56;101036.44;;;9.49;100.00
11114;BME280;5610;52.154;9.198;2023-02-03T04:58:41;101032.28;;;9.44;100.00
11114;BME280;5610;52.154;9.198;2023-02-03T05:01:26;101049.03;;;9.46;100.00
11114;BME280;5610;52.154;9.198;2023-02-03T05:04:13;101049.19;;;9.43;100.00
11114;BME280;5610;52.154;9.198;2023-02-03T05:06:59;101037.53;;;9.45;100.00
11114;BME280;5610;52.154;9.198;2023-02-03T05:09:45;101034.16;;;9.42;100.00
11114;BME280;5610;52.154;9.198;2023-02-03T05:12:30;101036.50;;;9.48;100.00
11114;BME280;5610;52.154;9.198;2023-02-03T05:15:15;101027.91;;;9.43;100.00
11114;BME280;5610;52.154;9.198;2023-02-03T05:18:01;101032.78;;;9.52;100.00
11114;BME280;5610;52.154;9.198;2023-02-03T05:20:48;101036.19;;;9.54;100.00
11114;BME280;5610;52.154;9.198;2023-02-03T05:23:33;101026.44;;;9.54;100.00
11114;BME280;5610;52.154;9.198;2023-02-03T05:26:19;101024.63;;;9.55;100.00
11114;BME280;5610;52.154;9.198;2023-02-03T05:29:04;101016.31;;;9.44;100.00
11114;BME280;5610;52.154;9.198;2023-02-03T05:31:49;101028.13;;;9.55;100.00
11114;BME280;5610;52.154;9.198;2023-02-03T05:34:35;101021.88;;;9.56;100.00
11114;BME280;5610;52.154;9.198;2023-02-03T05:37:21;101021.72;;;9.59;100.00
11114;BME280;5610;52.154;9.198;2023-02-03T05:40:08;101022.69;;;9.58;100.00
11114;BME280;5610;52.154;9.198;2023-02-03T05:43:11;101028.78;;;9.60;100.00
11114;BME280;5610;52.154;9.198;2023-02-03T05:45:58;101024.63;;;9.55;100.00
11114;BME280;5610;52.154;9.198;2023-02-03T05:48:43;101024.41;;;9.59;100.00
11114;BME280;5610;52.154;9.198;2023-02-03T05:51:29;101027.44;;;9.52;100.00
11114;BME280;5610;52.154;9.198;2023-02-03T05:54:15;101024.78;;;9.69;100.00
11114;BME280;5610;52.154;9.198;2023-02-03T05:57:00;101017.97;;;9.63;100.00
11114;BME280;5610;52.154;9.198;2023-02-03T05:59:46;101029.63;;;9.61;100.00
11114;BME280;5610;52.154;9.198;2023-02-03T06:02:32;101023.91;;;9.51;100.00
11114;BME280;5610;52.154;9.198;2023-02-03T06:05:17;101017.72;;;9.51;100.00
11114;BME280;5610;52.154;9.198;2023-02-03T06:08:03;101017.81;;;9.49;100.00
11114;BME280;5610;52.154;9.198;2023-02-03T06:10:49;101024.78;;;9.52;100.00
11114;BME280;5610;52.154;9.198;2023-02-03T06:13:35;101024.38;;;9.25;100.00
11114;BME280;5610;52.154;9.198;2023-02-03T06:16:21;101004.22;;;9.38;100.00
11114;BME280;5610;52.154;9.198;2023-02-03T06:19:08;101010.69;;;9.32;100.00
11114;BME280;5610;52.154;9.198;2023-02-03T06:21:53;101013.06;;;9.39;100.00
11114;BME280;5610;52.154;9.198;2023-02-03T06:24:39;101015.59;;;9.23;100.00
11114;BME280;5610;52.154;9.198;2023-02-03T06:27:25;101015.38;;;9.27;100.00
11114;BME280;5610;52.154;9.198;2023-02-03T06:30:11;101017.56;;;9.36;100.00
11114;BME280;5610;52.154;9.198;2023-02-03T06:32:57;101011.84;;;9.27;100.00
11114;BME280;5610;52.154;9.198;2023-02-03T06:35:42;101010.75;;;9.14;100.00
11114;BME280;5610;52.154;9.198;2023-02-03T06:38:28;101014.56;;;9.08;100.00
11114;BME280;5610;52.154;9.198;2023-02-03T06:41:13;101009.50;;;9.03;100.00
11114;BME280;5610;52.154;9.198;2023-02-03T06:44:00;101015.09;;;8.97;100.00
11114;BME280;5610;52.154;9.198;2023-02-03T06:46:45;101024.50;;;9.04;100.00
11114;BME280;5610;52.154;9.198;2023-02-03T06:49:30;101019.94;;;8.89;100.00
11114;BME280;5610;52.154;9.198;2023-02-03T06:52:16;101004.19;;;9.03;100.00
11114;BME280;5610;52.154;9.198;2023-02-03T06:55:02;101016.81;;;8.98;100.00
11114;BME280;5610;52.154;9.198;2023-02-03T06:57:47;101036.28;;;8.99;100.00
11114;BME280;5610;52.154;9.198;2023-02-03T07:00:34;101036.28;;;8.99;100.00
11114;BME280;5610;52.154;9.198;2023-02-03T07:03:19;101021.13;;;9.01;100.00
11114;BME280;5610;52.154;9.198;2023-02-03T07:06:05;101019.44;;;8.81;100.00
11114;BME280;5610;52.154;9.198;2023-02-03T07:08:50;101028.78;;;8.90;100.00
11114;BME280;5610;52.154;9.198;2023-02-03T07:11:36;101026.19;;;8.88;100.00
11114;BME280;5610;52.154;9.198;2023-02-03T07:14:21;101026.13;;;8.90;100.00
11114;BME280;5610;52.154;9.198;2023-02-03T07:17:08;101020.53;;;8.77;100.00
11114;BME280;5610;52.154;9.198;2023-02-03T07:19:53;101028.91;;;8.87;100.00
11114;BME280;5610;52.154;9.198;2023-02-03T07:22:39;101033.03;;;8.75;100.00
11114;BME280;5610;52.154;9.198;2023-02-03T07:25:26;101020.06;;;8.86;100.00
11114;BME280;5610;52.154;9.198;2023-02-03T07:28:12;101028.34;;;8.80;100.00
11114;BME280;5610;52.154;9.198;2023-02-03T07:30:57;101008.88;;;8.79;100.00
11114;BME280;5610;52.154;9.198;2023-02-03T07:33:44;101019.75;;;8.75;100.00
11114;BME280;5610;52.154;9.198;2023-02-03T07:36:30;100985.19;;;8.75;100.00
11114;BME280;5610;52.154;9.198;2023-02-03T07:39:15;100988.06;;;8.70;100.00
11114;BME280;5610;52.154;9.198;2023-02-03T07:42:00;100989.34;;;8.80;100.00
11114;BME280;5610;52.154;9.198;2023-02-03T07:44:47;100988.56;;;8.78;100.00
11114;BME280;5610;52.154;9.198;2023-02-03T07:47:32;101001.16;;;8.75;100.00
11114;BME280;5610;52.154;9.198;2023-02-03T07:50:19;100985.50;;;8.69;100.00
11114;BME280;5610;52.154;9.198;2023-02-03T07:53:04;100987.00;;;8.74;100.00
11114;BME280;5610;52.154;9.198;2023-02-03T07:55:51;100990.34;;;8.78;100.00
11114;BME280;5610;52.154;9.198;2023-02-03T07:58:37;100986.63;;;8.82;100.00
11114;BME280;5610;52.154;9.198;2023-02-03T08:01:22;100978.38;;;8.88;100.00
11114;BME280;5610;52.154;9.198;2023-02-03T08:04:08;100980.22;;;8.86;100.00
11114;BME280;5610;52.154;9.198;2023-02-03T08:06:57;100973.00;;;8.71;100.00
11114;BME280;5610;52.154;9.198;2023-02-03T08:09:42;100993.66;;;8.83;100.00
11114;BME280;5610;52.154;9.198;2023-02-03T08:12:28;100993.78;;;8.80;100.00
11114;BME280;5610;52.154;9.198;2023-02-03T08:15:13;100981.78;;;8.90;100.00
11114;BME280;5610;52.154;9.198;2023-02-03T08:18:00;100978.41;;;8.87;100.00
11114;BME280;5610;52.154;9.198;2023-02-03T08:20:46;100977.34;;;8.91;100.00
11114;BME280;5610;52.154;9.198;2023-02-03T08:23:33;100979.34;;;8.86;100.00
11114;BME280;5610;52.154;9.198;2023-02-03T08:26:18;100967.66;;;8.90;100.00
11114;BME280;5610;52.154;9.198;2023-02-03T08:29:03;100948.41;;;9.02;100.00
11114;BME280;5610;52.154;9.198;2023-02-03T08:31:49;100968.69;;;9.04;100.00
11114;BME280;5610;52.154;9.198;2023-02-03T08:34:34;100956.38;;;9.02;100.00
11114;BME280;5610;52.154;9.198;2023-02-03T08:37:22;100955.84;;;9.13;100.00
11114;BME280;5610;52.154;9.198;2023-02-03T08:40:11;100959.75;;;9.05;100.00
11114;BME280;5610;52.154;9.198;2023-02-03T08:42:56;100955.22;;;9.07;100.00
11114;BME280;5610;52.154;9.198;2023-02-03T08:45:42;100956.63;;;9.15;100.00
11114;BME280;5610;52.154;9.198;2023-02-03T08:48:27;100961.09;;;9.14;100.00
11114;BME280;5610;52.154;9.198;2023-02-03T08:51:15;100968.06;;;9.17;100.00
11114;BME280;5610;52.154;9.198;2023-02-03T08:54:01;100972.75;;;9.12;100.00
11114;BME280;5610;52.154;9.198;2023-02-03T08:56:47;100972.59;;;8.97;100.00
11114;BME280;5610;52.154;9.198;2023-02-03T08:59:33;100980.25;;;9.21;100.00
11114;BME280;5610;52.154;9.198;2023-02-03T09:02:19;100994.78;;;9.14;100.00
11114;BME280;5610;52.154;9.198;2023-02-03T09:05:04;100995.25;;;9.22;100.00
11114;BME280;5610;52.154;9.198;2023-02-03T09:07:50;100989.94;;;9.22;100.00
11114;BME280;5610;52.154;9.198;2023-02-03T09:10:35;100972.31;;;9.38;100.00
11114;BME280;5610;52.154;9.198;2023-02-03T09:13:22;100970.41;;;9.40;100.00
11114;BME280;5610;52.154;9.198;2023-02-03T09:16:08;100971.97;;;9.44;100.00
11114;BME280;5610;52.154;9.198;2023-02-03T09:18:53;100969.84;;;9.51;100.00
11114;BME280;5610;52.154;9.198;2023-02-03T09:21:38;100958.34;;;9.50;100.00
11114;BME280;5610;52.154;9.198;2023-02-03T09:24:24;100972.03;;;9.60;100.00
11114;BME280;5610;52.154;9.198;2023-02-03T09:27:09;100963.97;;;9.61;100.00
11114;BME280;5610;52.154;9.198;2023-02-03T09:29:56;100954.81;;;9.67;100.00
11114;BME280;5610;52.154;9.198;2023-02-03T09:32:42;100974.13;;;9.71;100.00
11114;BME280;5610;52.154;9.198;2023-02-03T09:35:27;100978.50;;;9.72;100.00
11114;BME280;5610;52.154;9.198;2023-02-03T09:38:13;101003.72;;;9.64;100.00
11114;BME280;5610;52.154;9.198;2023-02-03T09:41:00;101000.84;;;9.52;100.00
11114;BME280;5610;52.154;9.198;2023-02-03T09:43:52;101005.22;;;9.35;100.00
11114;BME280;5610;52.154;9.198;2023-02-03T09:46:44;101015.94;;;9.17;100.00
11114;BME280;5610;52.154;9.198;2023-02-03T09:49:37;101006.84;;;9.03;100.00
11114;BME280;5610;52.154;9.198;2023-02-03T09:52:26;101021.69;;;9.07;100.00
11114;BME280;5610;52.154;9.198;2023-02-03T09:55:23;101018.53;;;8.99;100.00
11114;BME280;5610;52.154;9.198;2023-02-03T09:58:11;101019.56;;;8.97;100.00
11114;BME280;5610;52.154;9.198;2023-02-03T10:00:59;101009.22;;;8.91;100.00
11114;BME280;5610;52.154;9.198;2023-02-03T10:03:50;101011.66;;;8.95;100.00
11114;BME280;5610;52.154;9.198;2023-02-03T10:06:43;101015.31;;;8.93;100.00
11114;BME280;5610;52.154;9.198;2023-02-03T10:09:39;101015.03;;;8.99;100.00
11114;BME280;5610;52.154;9.198;2023-02-03T10:12:46;101019.06;;;8.89;100.00
11114;BME280;5610;52.154;9.198;2023-02-03T10:15:57;101030.69;;;8.86;100.00
11114;BME280;5610;52.154;9.198;2023-02-03T10:18:50;101029.56;;;8.92;100.00
11114;BME280;5610;52.154;9.198;2023-02-03T10:21:40;101032.88;;;8.78;100.00
11114;BME280;5610;52.154;9.198;2023-02-03T10:24:34;101028.50;;;8.77;100.00
11114;BME280;5610;52.154;9.198;2023-02-03T10:27:23;101031.78;;;8.82;100.00
11114;BME280;5610;52.154;9.198;2023-02-03T10:30:17;101026.31;;;8.85;100.00
11114;BME280;5610;52.154;9.198;2023-02-03T10:33:09;101029.06;;;8.84;100.00
11114;BME280;5610;52.154;9.198;2023-02-03T10:36:02;101043.09;;;8.68;100.00
11114;BME280;5610;52.154;9.198;2023-02-03T10:38:54;101047.38;;;8.71;100.00
11114;BME280;5610;52.154;9.198;2023-02-03T10:41:41;101055.06;;;8.77;100.00
11114;BME280;5610;52.154;9.198;2023-02-03T10:44:33;101042.94;;;8.71;100.00
11114;BME280;5610;52.154;9.198;2023-02-03T10:47:24;101039.81;;;8.80;100.00
11114;BME280;5610;52.154;9.198;2023-02-03T10:50:15;101023.34;;;8.74;100.00
11114;BME280;5610;52.154;9.198;2023-02-03T10:53:20;101028.69;;;8.72;100.00
11114;BME280;5610;52.154;9.198;2023-02-03T10:56:08;101027.06;;;8.70;100.00
11114;BME280;5610;52.154;9.198;2023-02-03T10:58:57;101037.81;;;8.67;100.00
11114;BME280;5610;52.154;9.198;2023-02-03T11:01:44;101046.72;;;8.66;100.00
11114;BME280;5610;52.154;9.198;2023-02-03T11:04:31;101067.84;;;8.69;100.00
11114;BME280;5610;52.154;9.198;2023-02-03T11:07:23;101045.25;;;8.60;100.00
11114;BME280;5610;52.154;9.198;2023-02-03T11:10:27;101022.81;;;8.66;100.00
11114;BME280;5610;52.154;9.198;2023-02-03T11:13:19;101035.03;;;8.70;100.00
11114;BME280;5610;52.154;9.198;2023-02-03T11:16:05;101028.56;;;8.75;100.00
11114;BME280;5610;52.154;9.198;2023-02-03T11:18:56;101028.50;;;8.77;100.00
11114;BME280;5610;52.154;9.198;2023-02-03T11:21:45;101017.88;;;8.77;100.00
11114;BME280;5610;52.154;9.198;2023-02-03T11:24:33;101023.53;;;8.69;100.00
11114;BME280;5610;52.154;9.198;2023-02-03T11:27:23;101034.00;;;8.72;100.00
11114;BME280;5610;52.154;9.198;2023-02-03T11:30:15;101045.56;;;8.90;100.00
11114;BME280;5610;52.154;9.198;2023-02-03T11:33:02;101043.97;;;8.86;100.00
11114;BME280;5610;52.154;9.198;2023-02-03T11:35:54;101058.09;;;8.88;100.00
11114;BME280;5610;52.154;9.198;2023-02-03T11:38:40;101062.78;;;9.00;100.00
11114;BME280;5610;52.154;9.198;2023-02-03T11:41:35;101058.88;;;8.90;100.00
11114;BME280;5610;52.154;9.198;2023-02-03T11:44:24;101061.72;;;9.04;100.00
11114;BME280;5610;52.154;9.198;2023-02-03T11:47:13;101062.47;;;9.25;100.00
11114;BME280;5610;52.154;9.198;2023-02-03T11:50:17;101063.28;;;9.45;100.00
11114;BME280;5610;52.154;9.198;2023-02-03T11:53:17;101040.81;;;9.68;100.00
11114;BME280;5610;52.154;9.198;2023-02-03T11:56:19;101050.91;;;9.78;100.00
11114;BME280;5610;52.154;9.198;2023-02-03T11:59:26;101078.91;;;9.85;100.00
11114;BME280;5610;52.154;9.198;2023-02-03T12:02:39;101065.06;;;9.79;100.00
11114;BME280;5610;52.154;9.198;2023-02-03T12:09:01;101085.34;;;9.81;100.00
11114;BME280;5610;52.154;9.198;2023-02-03T12:12:28;101093.03;;;9.87;100.00
11114;BME280;5610;52.154;9.198;2023-02-03T12:18:53;101095.28;;;9.95;100.00
11114;BME280;5610;52.154;9.198;2023-02-03T12:21:42;101075.31;;;10.04;100.00
11114;BME280;5610;52.154;9.198;2023-02-03T12:24:36;101087.03;;;10.99;100.00
11114;BME280;5610;52.154;9.198;2023-02-03T12:27:32;101075.66;;;11.27;100.00
11114;BME280;5610;52.154;9.198;2023-02-03T12:30:24;101072.88;;;11.74;100.00
11114;BME280;5610;52.154;9.198;2023-02-03T12:33:17;101078.13;;;11.92;100.00
11114;BME280;5610;52.154;9.198;2023-02-03T12:36:08;101086.63;;;11.07;100.00
11114;BME280;5610;52.154;9.198;2023-02-03T12:38:59;101082.72;;;11.12;100.00
11114;BME280;5610;52.154;9.198;2023-02-03T12:41:51;101088.13;;;11.26;100.00
11114;BME280;5610;52.154;9.198;2023-02-03T12:44:44;101093.16;;;11.01;100.00
11114;BME280;5610;52.154;9.198;2023-02-03T12:47:35;101092.44;;;10.82;100.00
11114;BME280;5610;52.154;9.198;2023-02-03T12:50:28;101090.00;;;10.45;100.00
11114;BME280;5610;52.154;9.198;2023-02-03T12:53:20;101100.84;;;10.25;100.00
11114;BME280;5610;52.154;9.198;2023-02-03T12:56:10;101100.91;;;10.06;100.00
11114;BME280;5610;52.154;9.198;2023-02-03T12:59:00;101108.06;;;10.23;100.00
11114;BME280;5610;52.154;9.198;2023-02-03T13:01:50;101108.16;;;10.20;100.00
11114;BME280;5610;52.154;9.198;2023-02-03T13:04:42;101091.97;;;10.07;100.00
11114;BME280;5610;52.154;9.198;2023-02-03T13:07:33;101093.56;;;9.94;100.00
11114;BME280;5610;52.154;9.198;2023-02-03T13:10:25;101103.56;;;10.06;100.00
11114;BME280;5610;52.154;9.198;2023-02-03T13:13:17;101100.69;;;10.11;100.00
11114;BME280;5610;52.154;9.198;2023-02-03T13:16:06;101084.63;;;10.30;100.00
11114;BME280;5610;52.154;9.198;2023-02-03T13:18:55;101090.84;;;10.46;100.00
11114;BME280;5610;52.154;9.198;2023-02-03T13:21:47;101099.13;;;10.57;100.00
11114;BME280;5610;52.154;9.198;2023-02-03T13:24:32;101094.59;;;10.75;100.00
11114;BME280;5610;52.154;9.198;2023-02-03T13:27:29;101099.06;;;10.75;100.00
11114;BME280;5610;52.154;9.198;2023-02-03T13:30:37;101087.44;;;10.60;100.00
11114;BME280;5610;52.154;9.198;2023-02-03T13:33:54;101098.44;;;10.69;100.00
11114;BME280;5610;52.154;9.198;2023-02-03T13:37:20;101113.91;;;10.63;100.00
11114;BME280;5610;52.154;9.198;2023-02-03T13:40:21;101111.44;;;10.76;100.00
11114;BME280;5610;52.154;9.198;2023-02-03T13:43:16;101108.44;;;10.82;100.00
11114;BME280;5610;52.154;9.198;2023-02-03T13:46:04;101125.56;;;10.93;100.00
11114;BME280;5610;52.154;9.198;2023-02-03T13:48:51;101093.72;;;10.59;100.00
11114;BME280;5610;52.154;9.198;2023-02-03T13:51:42;101118.69;;;10.56;100.00
11114;BME280;5610;52.154;9.198;2023-02-03T13:54:31;101119.25;;;10.30;100.00
11114;BME280;5610;52.154;9.198;2023-02-03T13:57:20;101126.22;;;10.32;100.00
11114;BME280;5610;52.154;9.198;2023-02-03T14:03:44;101124.53;;;10.47;100.00
11114;BME280;5610;52.154;9.198;2023-02-03T14:06:57;101118.03;;;10.35;100.00
11114;BME280;5610;52.154;9.198;2023-02-03T14:09:45;101119.53;;;10.06;100.00
11114;BME280;5610;52.154;9.198;2023-02-03T14:12:33;101115.88;;;9.91;100.00
11114;BME280;5610;52.154;9.198;2023-02-03T14:15:22;101129.75;;;9.81;100.00
11114;BME280;5610;52.154;9.198;2023-02-03T14:18:33;101133.56;;;9.93;100.00
11114;BME280;5610;52.154;9.198;2023-02-03T14:21:21;101140.31;;;9.82;100.00
11114;BME280;5610;52.154;9.198;2023-02-03T14:24:09;101136.53;;;9.86;100.00
11114;BME280;5610;52.154;9.198;2023-02-03T14:26:56;101146.41;;;9.84;100.00
11114;BME280;5610;52.154;9.198;2023-02-03T14:29:43;101157.81;;;9.69;100.00
11114;BME280;5610;52.154;9.198;2023-02-03T14:32:47;101170.66;;;9.61;100.00
11114;BME280;5610;52.154;9.198;2023-02-03T14:35:35;101172.66;;;9.56;100.00
11114;BME280;5610;52.154;9.198;2023-02-03T14:38:30;101173.38;;;9.59;100.00
11114;BME280;5610;52.154;9.198;2023-02-03T14:41:17;101177.41;;;9.49;100.00
11114;BME280;5610;52.154;9.198;2023-02-03T14:44:11;101188.22;;;9.46;100.00
11114;BME280;5610;52.154;9.198;2023-02-03T14:47:10;101192.59;;;9.47;100.00
11114;BME280;5610;52.154;9.198;2023-02-03T14:50:11;101198.22;;;9.41;100.00
11114;BME280;5610;52.154;9.198;2023-02-03T14:53:19;101203.91;;;9.33;100.00
11114;BME280;5610;52.154;9.198;2023-02-03T14:56:14;101210.22;;;9.31;100.00
11114;BME280;5610;52.154;9.198;2023-02-03T14:59:03;101216.91;;;9.21;100.00
11114;BME280;5610;52.154;9.198;2023-02-03T15:02:10;101221.94;;;9.27;100.00
11114;BME280;5610;52.154;9.198;2023-02-03T15:05:37;101221.44;;;9.19;100.00
11114;BME280;5610;52.154;9.198;2023-02-03T15:08:40;101217.63;;;9.05;100.00